sensor_id;sensor_type;location;lat;lon;timestamp;P1;durP1;ratioP1;P2;durP2;ratioP2
5379;SDS011;2713;42.680;23.310;2023-03-23T00:01:23;28.37;;;19.93;;
5379;SDS011;2713;42.680;23.310;2023-03-23T00:03:52;25.90;;;17.63;;
5379;SDS011;2713;42.680;23.310;2023-03-23T00:06:23;26.30;;;19.20;;
5379;SDS011;2713;42.680;23.310;2023-03-23T00:08:52;24.13;;;17.90;;
5379;SDS011;2713;42.680;23.310;2023-03-23T00:11:25;24.90;;;17.87;;
5379;SDS011;2713;42.680;23.310;2023-03-23T00:13:54;36.87;;;23.70;;
5379;SDS011;2713;42.680;23.310;2023-03-23T00:16:26;35.63;;;23.40;;
5379;SDS011;2713;42.680;23.310;2023-03-23T00:18:56;29.43;;;22.03;;
5379;SDS011;2713;42.680;23.310;2023-03-23T00:21:26;27.60;;;20.13;;
5379;SDS011;2713;42.680;23.310;2023-03-23T00:24:00;28.43;;;20.10;;
5379;SDS011;2713;42.680;23.310;2023-03-23T00:26:28;27.77;;;19.47;;
5379;SDS011;2713;42.680;23.310;2023-03-23T00:28:59;27.83;;;18.87;;
5379;SDS011;2713;42.680;23.310;2023-03-23T00:31:27;29.57;;;20.30;;
5379;SDS011;2713;42.680;23.310;2023-03-23T00:33:58;27.43;;;19.53;;
5379;SDS011;2713;42.680;23.310;2023-03-23T00:36:30;31.87;;;20.00;;
5379;SDS011;2713;42.680;23.310;2023-03-23T00:39:00;31.60;;;21.07;;
5379;SDS011;2713;42.680;23.310;2023-03-23T00:41:27;27.10;;;19.73;;
5379;SDS011;2713;42.680;23.310;2023-03-23T00:43:55;25.57;;;18.40;;
5379;SDS011;2713;42.680;23.310;2023-03-23T00:46:22;28.00;;;19.93;;
5379;SDS011;2713;42.680;23.310;2023-03-23T00:48:50;28.03;;;18.43;;
5379;SDS011;2713;42.680;23.310;2023-03-23T00:51:17;26.57;;;18.93;;
5379;SDS011;2713;42.680;23.310;2023-03-23T00:53:46;26.20;;;19.30;;
5379;SDS011;2713;42.680;23.310;2023-03-23T00:56:13;28.13;;;19.90;;
5379;SDS011;2713;42.680;23.310;2023-03-23T00:58:40;32.70;;;23.70;;
5379;SDS011;2713;42.680;23.310;2023-03-23T01:01:07;40.33;;;27.40;;
5379;SDS011;2713;42.680;23.310;2023-03-23T01:03:34;40.10;;;28.17;;
5379;SDS011;2713;42.680;23.310;2023-03-23T01:06:05;43.90;;;28.77;;
5379;SDS011;2713;42.680;23.310;2023-03-23T01:08:37;43.07;;;28.00;;
5379;SDS011;2713;42.680;23.310;2023-03-23T01:11:12;43.40;;;28.80;;
5379;SDS011;2713;42.680;23.310;2023-03-23T01:13:40;41.83;;;26.93;;
5379;SDS011;2713;42.680;23.310;2023-03-23T01:16:08;36.70;;;27.00;;
5379;SDS011;2713;42.680;23.310;2023-03-23T01:18:36;40.30;;;28.50;;
5379;SDS011;2713;42.680;23.310;2023-03-23T01:21:04;42.97;;;29.30;;
5379;SDS011;2713;42.680;23.310;2023-03-23T01:23:31;41.10;;;30.00;;
5379;SDS011;2713;42.680;23.310;2023-03-23T01:26:02;40.70;;;28.27;;
5379;SDS011;2713;42.680;23.310;2023-03-23T01:28:31;38.73;;;26.77;;
5379;SDS011;2713;42.680;23.310;2023-03-23T01:31:01;39.03;;;24.53;;
5379;SDS011;2713;42.680;23.310;2023-03-23T01:33:28;35.17;;;22.53;;
5379;SDS011;2713;42.680;23.310;2023-03-23T01:35:55;35.10;;;23.37;;
5379;SDS011;2713;42.680;23.310;2023-03-23T01:38:22;33.00;;;23.03;;
5379;SDS011;2713;42.680;23.310;2023-03-23T01:40:49;29.87;;;22.17;;
5379;SDS011;2713;42.680;23.310;2023-03-23T01:43:16;33.57;;;21.90;;
5379;SDS011;2713;42.680;23.310;2023-03-23T01:45:45;29.67;;;20.60;;
5379;SDS011;2713;42.680;23.310;2023-03-23T01:48:13;29.17;;;19.90;;
5379;SDS011;2713;42.680;23.310;2023-03-23T01:50:48;32.80;;;22.10;;
5379;SDS011;2713;42.680;23.310;2023-03-23T01:53:21;31.27;;;21.87;;
5379;SDS011;2713;42.680;23.310;2023-03-23T01:55:50;30.10;;;21.03;;
5379;SDS011;2713;42.680;23.310;2023-03-23T01:58:21;34.67;;;22.83;;
5379;SDS011;2713;42.680;23.310;2023-03-23T02:00:55;31.17;;;22.27;;
5379;SDS011;2713;42.680;23.310;2023-03-23T02:03:26;29.67;;;21.30;;
5379;SDS011;2713;42.680;23.310;2023-03-23T02:05:54;30.67;;;21.57;;
5379;SDS011;2713;42.680;23.310;2023-03-23T02:08:36;24.90;;;19.90;;
5379;SDS011;2713;42.680;23.310;2023-03-23T02:11:11;26.87;;;19.60;;
5379;SDS011;2713;42.680;23.310;2023-03-23T02:13:39;28.30;;;20.27;;
5379;SDS011;2713;42.680;23.310;2023-03-23T02:16:08;30.23;;;22.03;;
5379;SDS011;2713;42.680;23.310;2023-03-23T02:18:46;30.60;;;20.20;;
5379;SDS011;2713;42.680;23.310;2023-03-23T02:24:27;27.73;;;18.17;;
5379;SDS011;2713;42.680;23.310;2023-03-23T02:27:06;27.13;;;18.97;;
5379;SDS011;2713;42.680;23.310;2023-03-23T02:29:42;27.50;;;20.03;;
5379;SDS011;2713;42.680;23.310;2023-03-23T02:35:22;28.63;;;19.67;;
5379;SDS011;2713;42.680;23.310;2023-03-23T02:37:56;24.97;;;18.50;;
5379;SDS011;2713;42.680;23.310;2023-03-23T02:40:27;27.70;;;18.70;;
5379;SDS011;2713;42.680;23.310;2023-03-23T02:42:59;29.33;;;20.27;;
5379;SDS011;2713;42.680;23.310;2023-03-23T02:45:29;26.27;;;18.77;;
5379;SDS011;2713;42.680;23.310;2023-03-23T02:47:59;24.90;;;18.70;;
5379;SDS011;2713;42.680;23.310;2023-03-23T02:50:30;25.07;;;18.83;;
5379;SDS011;2713;42.680;23.310;2023-03-23T02:53:03;28.33;;;19.63;;
5379;SDS011;2713;42.680;23.310;2023-03-23T02:55:33;32.23;;;22.40;;
5379;SDS011;2713;42.680;23.310;2023-03-23T02:58:09;27.60;;;20.63;;
5379;SDS011;2713;42.680;23.310;2023-03-23T03:00:38;29.43;;;20.27;;
5379;SDS011;2713;42.680;23.310;2023-03-23T03:03:10;26.00;;;18.07;;
5379;SDS011;2713;42.680;23.310;2023-03-23T03:05:42;24.37;;;17.23;;
5379;SDS011;2713;42.680;23.310;2023-03-23T03:08:15;24.27;;;18.03;;
5379;SDS011;2713;42.680;23.310;2023-03-23T03:10:51;24.53;;;17.90;;
5379;SDS011;2713;42.680;23.310;2023-03-23T03:13:32;28.00;;;19.00;;
5379;SDS011;2713;42.680;23.310;2023-03-23T03:16:07;28.57;;;20.13;;
5379;SDS011;2713;42.680;23.310;2023-03-23T03:18:42;33.20;;;21.23;;
5379;SDS011;2713;42.680;23.310;2023-03-23T03:21:16;31.03;;;21.17;;
5379;SDS011;2713;42.680;23.310;2023-03-23T03:23:45;26.80;;;19.80;;
5379;SDS011;2713;42.680;23.310;2023-03-23T03:26:16;25.80;;;17.80;;
5379;SDS011;2713;42.680;23.310;2023-03-23T03:28:53;26.67;;;16.50;;
5379;SDS011;2713;42.680;23.310;2023-03-23T03:31:21;20.40;;;14.80;;
5379;SDS011;2713;42.680;23.310;2023-03-23T03:33:53;22.27;;;15.40;;
5379;SDS011;2713;42.680;23.310;2023-03-23T03:36:24;22.43;;;16.90;;
5379;SDS011;2713;42.680;23.310;2023-03-23T03:39:00;23.10;;;15.87;;
5379;SDS011;2713;42.680;23.310;2023-03-23T03:41:31;22.80;;;15.73;;
5379;SDS011;2713;42.680;23.310;2023-03-23T03:43:59;19.90;;;14.83;;
5379;SDS011;2713;42.680;23.310;2023-03-23T03:46:26;18.83;;;13.23;;
5379;SDS011;2713;42.680;23.310;2023-03-23T03:48:56;20.13;;;13.93;;
5379;SDS011;2713;42.680;23.310;2023-03-23T03:51:24;18.50;;;13.20;;
5379;SDS011;2713;42.680;23.310;2023-03-23T03:53:53;16.70;;;11.57;;
5379;SDS011;2713;42.680;23.310;2023-03-23T03:56:21;15.53;;;11.00;;
5379;SDS011;2713;42.680;23.310;2023-03-23T03:59:00;18.57;;;11.07;;
5379;SDS011;2713;42.680;23.310;2023-03-23T04:01:43;14.53;;;10.87;;
5379;SDS011;2713;42.680;23.310;2023-03-23T04:04:10;12.23;;;10.50;;
5379;SDS011;2713;42.680;23.310;2023-03-23T04:06:40;14.10;;;11.20;;
5379;SDS011;2713;42.680;23.310;2023-03-23T04:09:07;17.43;;;12.80;;
5379;SDS011;2713;42.680;23.310;2023-03-23T04:11:35;18.40;;;11.53;;
5379;SDS011;2713;42.680;23.310;2023-03-23T04:14:22;17.47;;;12.10;;
5379;SDS011;2713;42.680;23.310;2023-03-23T04:16:53;16.67;;;13.00;;
5379;SDS011;2713;42.680;23.310;2023-03-23T04:19:22;16.23;;;12.73;;
5379;SDS011;2713;42.680;23.310;2023-03-23T04:21:51;19.37;;;14.47;;
5379;SDS011;2713;42.680;23.310;2023-03-23T04:24:18;17.30;;;13.43;;
5379;SDS011;2713;42.680;23.310;2023-03-23T04:26:46;17.90;;;13.50;;
5379;SDS011;2713;42.680;23.310;2023-03-23T04:29:22;17.33;;;13.73;;
5379;SDS011;2713;42.680;23.310;2023-03-23T04:32:18;20.87;;;13.60;;
5379;SDS011;2713;42.680;23.310;2023-03-23T04:34:49;16.53;;;12.70;;
5379;SDS011;2713;42.680;23.310;2023-03-23T04:37:20;17.50;;;13.00;;
5379;SDS011;2713;42.680;23.310;2023-03-23T04:39:50;17.87;;;13.23;;
5379;SDS011;2713;42.680;23.310;2023-03-23T04:42:26;22.17;;;13.87;;
5379;SDS011;2713;42.680;23.310;2023-03-23T04:45:13;17.07;;;12.70;;
5379;SDS011;2713;42.680;23.310;2023-03-23T04:47:47;21.00;;;15.70;;
5379;SDS011;2713;42.680;23.310;2023-03-23T04:50:24;37.20;;;26.43;;
5379;SDS011;2713;42.680;23.310;2023-03-23T04:52:54;25.90;;;17.37;;
5379;SDS011;2713;42.680;23.310;2023-03-23T04:55:22;22.73;;;14.03;;
5379;SDS011;2713;42.680;23.310;2023-03-23T04:57:54;16.77;;;12.83;;
5379;SDS011;2713;42.680;23.310;2023-03-23T05:00:50;19.23;;;13.30;;
5379;SDS011;2713;42.680;23.310;2023-03-23T05:03:19;16.67;;;13.30;;
5379;SDS011;2713;42.680;23.310;2023-03-23T05:05:48;18.30;;;13.90;;
5379;SDS011;2713;42.680;23.310;2023-03-23T05:08:19;20.07;;;14.27;;
5379;SDS011;2713;42.680;23.310;2023-03-23T05:10:50;23.53;;;14.50;;
5379;SDS011;2713;42.680;23.310;2023-03-23T05:13:19;22.77;;;16.43;;
5379;SDS011;2713;42.680;23.310;2023-03-23T05:15:50;23.47;;;15.30;;
5379;SDS011;2713;42.680;23.310;2023-03-23T05:18:17;20.77;;;15.67;;
5379;SDS011;2713;42.680;23.310;2023-03-23T05:20:45;21.63;;;16.93;;
5379;SDS011;2713;42.680;23.310;2023-03-23T05:23:16;23.83;;;16.20;;
5379;SDS011;2713;42.680;23.310;2023-03-23T05:25:53;22.00;;;16.93;;
5379;SDS011;2713;42.680;23.310;2023-03-23T05:28:22;24.20;;;17.30;;
5379;SDS011;2713;42.680;23.310;2023-03-23T05:31:09;25.47;;;17.57;;
5379;SDS011;2713;42.680;23.310;2023-03-23T05:33:36;25.17;;;18.93;;
5379;SDS011;2713;42.680;23.310;2023-03-23T05:36:28;28.57;;;20.00;;
5379;SDS011;2713;42.680;23.310;2023-03-23T05:39:07;33.40;;;21.60;;
5379;SDS011;2713;42.680;23.310;2023-03-23T05:42:01;33.70;;;22.43;;
5379;SDS011;2713;42.680;23.310;2023-03-23T05:44:39;37.30;;;22.70;;
5379;SDS011;2713;42.680;23.310;2023-03-23T05:47:07;29.77;;;21.20;;
5379;SDS011;2713;42.680;23.310;2023-03-23T05:49:37;31.87;;;22.40;;
5379;SDS011;2713;42.680;23.310;2023-03-23T05:52:07;36.40;;;22.03;;
5379;SDS011;2713;42.680;23.310;2023-03-23T05:54:34;30.53;;;21.70;;
5379;SDS011;2713;42.680;23.310;2023-03-23T05:57:02;39.23;;;21.57;;
5379;SDS011;2713;42.680;23.310;2023-03-23T05:59:53;36.27;;;23.07;;
5379;SDS011;2713;42.680;23.310;2023-03-23T06:02:23;31.73;;;22.50;;
5379;SDS011;2713;42.680;23.310;2023-03-23T06:04:53;28.77;;;20.83;;
5379;SDS011;2713;42.680;23.310;2023-03-23T06:07:29;26.13;;;20.50;;
5379;SDS011;2713;42.680;23.310;2023-03-23T06:09:59;31.43;;;22.87;;
5379;SDS011;2713;42.680;23.310;2023-03-23T06:12:53;36.27;;;22.53;;
5379;SDS011;2713;42.680;23.310;2023-03-23T06:15:32;36.77;;;23.67;;
5379;SDS011;2713;42.680;23.310;2023-03-23T06:17:58;34.87;;;23.77;;
5379;SDS011;2713;42.680;23.310;2023-03-23T06:20:33;31.70;;;23.53;;
5379;SDS011;2713;42.680;23.310;2023-03-23T06:23:12;34.57;;;24.03;;
5379;SDS011;2713;42.680;23.310;2023-03-23T06:25:41;35.30;;;25.07;;
5379;SDS011;2713;42.680;23.310;2023-03-23T06:28:10;35.13;;;24.40;;
5379;SDS011;2713;42.680;23.310;2023-03-23T06:30:41;34.27;;;24.90;;
5379;SDS011;2713;42.680;23.310;2023-03-23T06:33:08;37.07;;;25.37;;
5379;SDS011;2713;42.680;23.310;2023-03-23T06:35:55;34.60;;;25.57;;
5379;SDS011;2713;42.680;23.310;2023-03-23T06:38:41;34.73;;;25.57;;
5379;SDS011;2713;42.680;23.310;2023-03-23T06:41:08;37.77;;;24.97;;
5379;SDS011;2713;42.680;23.310;2023-03-23T06:43:36;38.20;;;23.37;;
5379;SDS011;2713;42.680;23.310;2023-03-23T06:46:12;40.07;;;25.23;;
5379;SDS011;2713;42.680;23.310;2023-03-23T06:48:39;35.70;;;26.57;;
5379;SDS011;2713;42.680;23.310;2023-03-23T06:51:08;34.40;;;24.40;;
5379;SDS011;2713;42.680;23.310;2023-03-23T06:53:37;32.10;;;24.00;;
5379;SDS011;2713;42.680;23.310;2023-03-23T06:56:07;32.13;;;24.60;;
5379;SDS011;2713;42.680;23.310;2023-03-23T06:58:36;33.90;;;24.70;;
5379;SDS011;2713;42.680;23.310;2023-03-23T07:01:04;40.23;;;26.80;;
5379;SDS011;2713;42.680;23.310;2023-03-23T07:03:37;34.90;;;24.93;;
5379;SDS011;2713;42.680;23.310;2023-03-23T07:06:06;33.60;;;24.93;;
5379;SDS011;2713;42.680;23.310;2023-03-23T07:08:43;28.50;;;22.90;;
5379;SDS011;2713;42.680;23.310;2023-03-23T07:11:15;32.80;;;24.03;;
5379;SDS011;2713;42.680;23.310;2023-03-23T07:13:43;30.97;;;22.57;;
5379;SDS011;2713;42.680;23.310;2023-03-23T07:16:12;30.60;;;22.90;;
5379;SDS011;2713;42.680;23.310;2023-03-23T07:18:39;30.83;;;24.00;;
5379;SDS011;2713;42.680;23.310;2023-03-23T07:21:06;30.77;;;24.37;;
5379;SDS011;2713;42.680;23.310;2023-03-23T07:23:33;31.80;;;23.53;;
5379;SDS011;2713;42.680;23.310;2023-03-23T07:26:04;29.20;;;23.10;;
5379;SDS011;2713;42.680;23.310;2023-03-23T07:28:59;33.50;;;23.80;;
5379;SDS011;2713;42.680;23.310;2023-03-23T07:31:32;32.60;;;24.90;;
5379;SDS011;2713;42.680;23.310;2023-03-23T07:33:59;32.23;;;24.10;;
5379;SDS011;2713;42.680;23.310;2023-03-23T07:36:36;31.63;;;22.53;;
5379;SDS011;2713;42.680;23.310;2023-03-23T07:39:05;30.67;;;21.97;;
5379;SDS011;2713;42.680;23.310;2023-03-23T07:41:33;31.30;;;23.33;;
5379;SDS011;2713;42.680;23.310;2023-03-23T07:44:12;27.23;;;22.40;;
5379;SDS011;2713;42.680;23.310;2023-03-23T07:46:43;28.93;;;22.20;;
5379;SDS011;2713;42.680;23.310;2023-03-23T07:49:14;27.83;;;21.10;;
5379;SDS011;2713;42.680;23.310;2023-03-23T07:51:48;27.10;;;21.63;;
5379;SDS011;2713;42.680;23.310;2023-03-23T07:54:16;32.10;;;23.67;;
5379;SDS011;2713;42.680;23.310;2023-03-23T07:56:53;31.03;;;24.00;;
5379;SDS011;2713;42.680;23.310;2023-03-23T07:59:25;31.90;;;23.80;;
5379;SDS011;2713;42.680;23.310;2023-03-23T08:01:53;34.53;;;24.30;;
5379;SDS011;2713;42.680;23.310;2023-03-23T08:04:26;28.07;;;21.80;;
5379;SDS011;2713;42.680;23.310;2023-03-23T08:07:15;32.30;;;23.70;;
5379;SDS011;2713;42.680;23.310;2023-03-23T08:10:05;26.90;;;21.30;;
5379;SDS011;2713;42.680;23.310;2023-03-23T08:12:54;27.33;;;20.67;;
5379;SDS011;2713;42.680;23.310;2023-03-23T08:15:27;27.20;;;21.43;;
5379;SDS011;2713;42.680;23.310;2023-03-23T08:18:04;29.83;;;21.43;;
5379;SDS011;2713;42.680;23.310;2023-03-23T08:20:49;26.47;;;19.47;;
5379;SDS011;2713;42.680;23.310;2023-03-23T08:23:48;20.70;;;16.60;;
5379;SDS011;2713;42.680;23.310;2023-03-23T08:26:28;20.73;;;16.30;;
5379;SDS011;2713;42.680;23.310;2023-03-23T08:29:23;19.70;;;16.07;;
5379;SDS011;2713;42.680;23.310;2023-03-23T08:32:05;17.57;;;14.80;;
5379;SDS011;2713;42.680;23.310;2023-03-23T08:34:31;17.53;;;13.63;;
5379;SDS011;2713;42.680;23.310;2023-03-23T08:37:01;26.33;;;16.57;;
5379;SDS011;2713;42.680;23.310;2023-03-23T08:39:50;19.70;;;16.30;;
5379;SDS011;2713;42.680;23.310;2023-03-23T08:42:38;23.70;;;15.57;;
5379;SDS011;2713;42.680;23.310;2023-03-23T08:45:26;16.77;;;13.70;;
5379;SDS011;2713;42.680;23.310;2023-03-23T08:48:11;22.90;;;13.50;;
5379;SDS011;2713;42.680;23.310;2023-03-23T08:50:58;13.33;;;11.27;;
5379;SDS011;2713;42.680;23.310;2023-03-23T08:53:27;15.30;;;10.80;;
5379;SDS011;2713;42.680;23.310;2023-03-23T08:56:14;19.87;;;13.17;;
5379;SDS011;2713;42.680;23.310;2023-03-23T08:58:44;14.77;;;12.47;;
5379;SDS011;2713;42.680;23.310;2023-03-23T09:01:21;14.90;;;12.23;;
5379;SDS011;2713;42.680;23.310;2023-03-23T09:04:02;15.80;;;12.90;;
5379;SDS011;2713;42.680;23.310;2023-03-23T09:06:48;11.30;;;8.90;;
5379;SDS011;2713;42.680;23.310;2023-03-23T09:09:15;11.57;;;10.37;;
5379;SDS011;2713;42.680;23.310;2023-03-23T09:11:41;13.20;;;11.10;;
5379;SDS011;2713;42.680;23.310;2023-03-23T09:14:08;13.90;;;10.30;;
5379;SDS011;2713;42.680;23.310;2023-03-23T09:16:35;9.77;;;8.50;;
5379;SDS011;2713;42.680;23.310;2023-03-23T09:19:03;12.37;;;9.30;;
5379;SDS011;2713;42.680;23.310;2023-03-23T09:21:30;12.50;;;8.90;;
5379;SDS011;2713;42.680;23.310;2023-03-23T09:23:57;11.60;;;8.87;;
5379;SDS011;2713;42.680;23.310;2023-03-23T09:26:24;9.80;;;8.80;;
5379;SDS011;2713;42.680;23.310;2023-03-23T09:28:51;10.20;;;8.47;;
5379;SDS011;2713;42.680;23.310;2023-03-23T09:31:18;11.23;;;9.23;;
5379;SDS011;2713;42.680;23.310;2023-03-23T09:33:47;11.07;;;9.97;;
5379;SDS011;2713;42.680;23.310;2023-03-23T09:36:18;10.53;;;9.43;;
5379;SDS011;2713;42.680;23.310;2023-03-23T09:38:46;11.10;;;9.70;;
5379;SDS011;2713;42.680;23.310;2023-03-23T09:44:09;11.40;;;10.30;;
5379;SDS011;2713;42.680;23.310;2023-03-23T09:46:49;12.57;;;10.30;;
5379;SDS011;2713;42.680;23.310;2023-03-23T09:49:25;16.17;;;13.60;;
5379;SDS011;2713;42.680;23.310;2023-03-23T09:51:56;13.03;;;9.70;;
5379;SDS011;2713;42.680;23.310;2023-03-23T09:54:29;12.60;;;9.03;;
5379;SDS011;2713;42.680;23.310;2023-03-23T09:56:58;10.13;;;9.13;;
5379;SDS011;2713;42.680;23.310;2023-03-23T09:59:29;11.27;;;9.90;;
5379;SDS011;2713;42.680;23.310;2023-03-23T10:02:04;10.80;;;9.70;;
5379;SDS011;2713;42.680;23.310;2023-03-23T10:04:41;11.40;;;10.13;;
5379;SDS011;2713;42.680;23.310;2023-03-23T10:07:12;10.80;;;9.67;;
5379;SDS011;2713;42.680;23.310;2023-03-23T10:09:41;11.00;;;9.50;;
5379;SDS011;2713;42.680;23.310;2023-03-23T10:12:13;11.27;;;10.03;;
5379;SDS011;2713;42.680;23.310;2023-03-23T10:17:37;10.17;;;8.67;;
5379;SDS011;2713;42.680;23.310;2023-03-23T10:20:19;10.10;;;7.93;;
5379;SDS011;2713;42.680;23.310;2023-03-23T10:22:57;10.23;;;8.50;;
5379;SDS011;2713;42.680;23.310;2023-03-23T10:25:29;10.60;;;8.90;;
5379;SDS011;2713;42.680;23.310;2023-03-23T10:27:59;9.60;;;8.43;;
5379;SDS011;2713;42.680;23.310;2023-03-23T10:30:32;9.17;;;8.03;;
5379;SDS011;2713;42.680;23.310;2023-03-23T10:33:02;12.40;;;9.80;;
5379;SDS011;2713;42.680;23.310;2023-03-23T10:35:43;11.63;;;8.47;;
5379;SDS011;2713;42.680;23.310;2023-03-23T10:38:15;8.40;;;7.50;;
5379;SDS011;2713;42.680;23.310;2023-03-23T10:40:48;9.13;;;7.70;;
5379;SDS011;2713;42.680;23.310;2023-03-23T10:43:17;8.47;;;7.50;;
5379;SDS011;2713;42.680;23.310;2023-03-23T10:45:46;9.87;;;8.87;;
5379;SDS011;2713;42.680;23.310;2023-03-23T10:48:20;10.80;;;9.70;;
5379;SDS011;2713;42.680;23.310;2023-03-23T10:50:52;15.73;;;12.50;;
5379;SDS011;2713;42.680;23.310;2023-03-23T10:53:25;9.63;;;8.63;;
5379;SDS011;2713;42.680;23.310;2023-03-23T10:55:58;9.87;;;8.83;;
5379;SDS011;2713;42.680;23.310;2023-03-23T10:58:26;9.67;;;8.77;;
5379;SDS011;2713;42.680;23.310;2023-03-23T11:00:55;12.33;;;8.97;;
5379;SDS011;2713;42.680;23.310;2023-03-23T11:03:24;9.23;;;8.30;;
5379;SDS011;2713;42.680;23.310;2023-03-23T11:05:58;11.00;;;8.90;;
5379;SDS011;2713;42.680;23.310;2023-03-23T11:08:31;12.07;;;9.17;;
5379;SDS011;2713;42.680;23.310;2023-03-23T11:11:08;10.00;;;9.00;;
5379;SDS011;2713;42.680;23.310;2023-03-23T11:13:39;10.90;;;8.83;;
5379;SDS011;2713;42.680;23.310;2023-03-23T11:16:10;9.20;;;8.30;;
5379;SDS011;2713;42.680;23.310;2023-03-23T11:18:49;10.10;;;8.23;;
5379;SDS011;2713;42.680;23.310;2023-03-23T11:21:17;8.07;;;7.27;;
5379;SDS011;2713;42.680;23.310;2023-03-23T11:23:49;9.90;;;7.83;;
5379;SDS011;2713;42.680;23.310;2023-03-23T11:26:20;8.17;;;7.37;;
5379;SDS011;2713;42.680;23.310;2023-03-23T11:28:51;10.50;;;8.73;;
5379;SDS011;2713;42.680;23.310;2023-03-23T11:31:22;9.43;;;7.90;;
5379;SDS011;2713;42.680;23.310;2023-03-23T11:33:52;9.33;;;8.33;;
5379;SDS011;2713;42.680;23.310;2023-03-23T11:36:21;9.53;;;8.10;;
5379;SDS011;2713;42.680;23.310;2023-03-23T11:38:58;9.57;;;8.67;;
5379;SDS011;2713;42.680;23.310;2023-03-23T11:41:28;10.50;;;8.30;;
5379;SDS011;2713;42.680;23.310;2023-03-23T11:44:02;9.17;;;7.30;;
5379;SDS011;2713;42.680;23.310;2023-03-23T11:46:44;9.63;;;7.30;;
5379;SDS011;2713;42.680;23.310;2023-03-23T11:49:22;8.23;;;7.43;;
5379;SDS011;2713;42.680;23.310;2023-03-23T11:51:59;11.00;;;7.70;;
5379;SDS011;2713;42.680;23.310;2023-03-23T11:54:33;10.33;;;8.60;;
5379;SDS011;2713;42.680;23.310;2023-03-23T11:57:05;9.23;;;8.20;;
5379;SDS011;2713;42.680;23.310;2023-03-23T11:59:35;9.33;;;8.30;;
5379;SDS011;2713;42.680;23.310;2023-03-23T12:02:21;9.40;;;8.00;;
5379;SDS011;2713;42.680;23.310;2023-03-23T12:05:07;9.20;;;7.93;;
5379;SDS011;2713;42.680;23.310;2023-03-23T12:07:48;8.50;;;7.53;;
5379;SDS011;2713;42.680;23.310;2023-03-23T12:10:29;9.33;;;8.43;;
5379;SDS011;2713;42.680;23.310;2023-03-23T12:13:06;8.90;;;7.70;;
5379;SDS011;2713;42.680;23.310;2023-03-23T12:15:44;13.57;;;8.07;;
5379;SDS011;2713;42.680;23.310;2023-03-23T12:18:26;8.17;;;7.37;;
5379;SDS011;2713;42.680;23.310;2023-03-23T12:21:04;10.60;;;7.80;;
5379;SDS011;2713;42.680;23.310;2023-03-23T12:23:41;11.20;;;9.70;;
5379;SDS011;2713;42.680;23.310;2023-03-23T12:26:21;8.93;;;7.43;;
5379;SDS011;2713;42.680;23.310;2023-03-23T12:29:04;8.40;;;7.57;;
5379;SDS011;2713;42.680;23.310;2023-03-23T12:31:55;9.37;;;7.77;;
5379;SDS011;2713;42.680;23.310;2023-03-23T12:34:33;9.00;;;7.20;;
5379;SDS011;2713;42.680;23.310;2023-03-23T12:37:18;8.83;;;7.90;;
5379;SDS011;2713;42.680;23.310;2023-03-23T12:40:03;8.63;;;7.70;;
5379;SDS011;2713;42.680;23.310;2023-03-23T12:42:49;11.07;;;8.53;;
5379;SDS011;2713;42.680;23.310;2023-03-23T12:45:25;7.97;;;7.27;;
5379;SDS011;2713;42.680;23.310;2023-03-23T12:48:09;9.80;;;8.00;;
5379;SDS011;2713;42.680;23.310;2023-03-23T12:50:40;8.90;;;8.10;;
5379;SDS011;2713;42.680;23.310;2023-03-23T12:53:13;8.03;;;7.23;;
5379;SDS011;2713;42.680;23.310;2023-03-23T12:55:45;8.63;;;7.53;;
5379;SDS011;2713;42.680;23.310;2023-03-23T12:58:19;8.87;;;7.40;;
5379;SDS011;2713;42.680;23.310;2023-03-23T13:00:53;11.60;;;7.10;;
5379;SDS011;2713;42.680;23.310;2023-03-23T13:03:25;6.93;;;6.33;;
5379;SDS011;2713;42.680;23.310;2023-03-23T13:06:00;8.03;;;7.17;;
5379;SDS011;2713;42.680;23.310;2023-03-23T13:08:33;7.00;;;6.30;;
5379;SDS011;2713;42.680;23.310;2023-03-23T13:11:04;6.77;;;6.17;;
5379;SDS011;2713;42.680;23.310;2023-03-23T13:13:43;8.33;;;6.80;;
5379;SDS011;2713;42.680;23.310;2023-03-23T13:16:15;7.90;;;6.70;;
5379;SDS011;2713;42.680;23.310;2023-03-23T13:18:57;7.80;;;6.70;;
5379;SDS011;2713;42.680;23.310;2023-03-23T13:21:34;8.43;;;7.57;;
5379;SDS011;2713;42.680;23.310;2023-03-23T13:24:08;9.03;;;7.27;;
5379;SDS011;2713;42.680;23.310;2023-03-23T13:26:39;8.87;;;7.40;;
5379;SDS011;2713;42.680;23.310;2023-03-23T13:29:12;9.83;;;7.03;;
5379;SDS011;2713;42.680;23.310;2023-03-23T13:31:40;8.23;;;7.43;;
5379;SDS011;2713;42.680;23.310;2023-03-23T13:34:11;7.73;;;6.93;;
5379;SDS011;2713;42.680;23.310;2023-03-23T13:36:44;8.07;;;7.37;;
5379;SDS011;2713;42.680;23.310;2023-03-23T13:39:20;7.03;;;6.43;;
5379;SDS011;2713;42.680;23.310;2023-03-23T13:41:59;7.80;;;7.00;;
5379;SDS011;2713;42.680;23.310;2023-03-23T13:44:40;7.50;;;6.80;;
5379;SDS011;2713;42.680;23.310;2023-03-23T13:47:16;8.60;;;7.20;;
5379;SDS011;2713;42.680;23.310;2023-03-23T13:49:49;7.13;;;6.43;;
5379;SDS011;2713;42.680;23.310;2023-03-23T13:52:21;6.40;;;5.80;;
5379;SDS011;2713;42.680;23.310;2023-03-23T13:54:50;7.30;;;6.60;;
5379;SDS011;2713;42.680;23.310;2023-03-23T13:57:20;6.87;;;6.20;;
5379;SDS011;2713;42.680;23.310;2023-03-23T13:59:57;6.60;;;6.00;;
5379;SDS011;2713;42.680;23.310;2023-03-23T14:02:32;6.93;;;6.23;;
5379;SDS011;2713;42.680;23.310;2023-03-23T14:07:57;7.57;;;6.87;;
5379;SDS011;2713;42.680;23.310;2023-03-23T14:10:31;7.33;;;6.70;;
5379;SDS011;2713;42.680;23.310;2023-03-23T14:13:00;9.13;;;6.50;;
5379;SDS011;2713;42.680;23.310;2023-03-23T14:15:31;7.13;;;6.50;;
5379;SDS011;2713;42.680;23.310;2023-03-23T14:18:11;8.20;;;6.77;;
5379;SDS011;2713;42.680;23.310;2023-03-23T14:20:40;7.90;;;7.10;;
5379;SDS011;2713;42.680;23.310;2023-03-23T14:23:14;6.97;;;6.30;;
5379;SDS011;2713;42.680;23.310;2023-03-23T14:25:42;9.13;;;6.50;;
5379;SDS011;2713;42.680;23.310;2023-03-23T14:28:16;7.40;;;6.70;;
5379;SDS011;2713;42.680;23.310;2023-03-23T14:30:45;7.07;;;6.30;;
5379;SDS011;2713;42.680;23.310;2023-03-23T14:33:12;7.50;;;6.57;;
5379;SDS011;2713;42.680;23.310;2023-03-23T14:35:41;6.80;;;6.20;;
5379;SDS011;2713;42.680;23.310;2023-03-23T14:38:13;7.10;;;6.40;;
5379;SDS011;2713;42.680;23.310;2023-03-23T14:40:43;8.10;;;7.30;;
5379;SDS011;2713;42.680;23.310;2023-03-23T14:43:10;7.47;;;6.77;;
5379;SDS011;2713;42.680;23.310;2023-03-23T14:45:42;10.23;;;9.13;;
5379;SDS011;2713;42.680;23.310;2023-03-23T14:48:12;8.23;;;7.10;;
5379;SDS011;2713;42.680;23.310;2023-03-23T14:50:42;7.33;;;6.43;;
5379;SDS011;2713;42.680;23.310;2023-03-23T14:53:16;10.43;;;6.60;;
5379;SDS011;2713;42.680;23.310;2023-03-23T14:55:46;6.50;;;5.90;;
5379;SDS011;2713;42.680;23.310;2023-03-23T14:58:16;6.00;;;5.50;;
5379;SDS011;2713;42.680;23.310;2023-03-23T15:00:45;7.03;;;6.33;;
5379;SDS011;2713;42.680;23.310;2023-03-23T15:03:16;10.30;;;6.47;;
5379;SDS011;2713;42.680;23.310;2023-03-23T15:05:47;7.67;;;6.97;;
5379;SDS011;2713;42.680;23.310;2023-03-23T15:08:18;7.33;;;6.63;;
5379;SDS011;2713;42.680;23.310;2023-03-23T15:10:51;7.27;;;6.57;;
5379;SDS011;2713;42.680;23.310;2023-03-23T15:13:20;7.00;;;6.30;;
5379;SDS011;2713;42.680;23.310;2023-03-23T15:15:48;7.27;;;6.53;;
5379;SDS011;2713;42.680;23.310;2023-03-23T15:18:27;8.00;;;7.00;;
5379;SDS011;2713;42.680;23.310;2023-03-23T15:20:57;7.80;;;6.70;;
5379;SDS011;2713;42.680;23.310;2023-03-23T15:23:27;7.37;;;6.67;;
5379;SDS011;2713;42.680;23.310;2023-03-23T15:25:55;7.07;;;6.40;;
5379;SDS011;2713;42.680;23.310;2023-03-23T15:28:27;7.30;;;6.50;;
5379;SDS011;2713;42.680;23.310;2023-03-23T15:30:59;8.53;;;7.00;;
5379;SDS011;2713;42.680;23.310;2023-03-23T15:33:33;10.60;;;6.83;;